WetterOnline ( https://www.wetteronline.de )

Wetter aktuell Bad Oeynhausen

Aktuelles Wetter: Bad Salzuflen (139m)

6-stündlich | Neueste Meldungen
Ortszeit Temperatur Wetter
Sa, 25.05. 14:00 20.0° C bewölkt
Sa, 25.05. 8:00 14.5° C Nebel
Sa, 25.05. 2:00 14.1° C Nebel
Fr, 24.05. 20:00 14.5° C leichter Regen
Fr, 24.05. 14:00 21.0° C bewölkt
Fr, 24.05. 8:00 13.9° C wolkig
Fr, 24.05. 2:00 11.6° C wolkenlos
Do, 23.05. 20:00 18.9° C fast wolkenlos
Ortszeit Temperatur Wetter
Sa, 25.05. 17:00 19.8° C bewölkt
Sa, 25.05. 16:50 19.8° C bewölkt
Sa, 25.05. 16:40 19.6° C bewölkt
Sa, 25.05. 16:30 19.9° C bewölkt
Sa, 25.05. 16:20 19.9° C bewölkt
Sa, 25.05. 16:10 20.3° C bewölkt
Sa, 25.05. 16:00 20.1° C bewölkt
Sa, 25.05. 15:30 20.2° C Dunst
Sa, 25.05. 15:00 21.7° C leicht bewölkt
Sa, 25.05. 14:30 20.6° C leicht bewölkt
Sa, 25.05. 14:00 20.0° C bewölkt
Ortszeit Relative Feuchte Sichtweite
Sa, 25.05. 14:00 60% 65 km
Sa, 25.05. 8:00 93% 7 km
Sa, 25.05. 2:00 97% 0.7 km
Fr, 24.05. 20:00 96% 7 km
Fr, 24.05. 14:00 62% 35 km
Fr, 24.05. 8:00 78% 45 km
Fr, 24.05. 2:00 92% 29 km
Do, 23.05. 20:00 59% 55 km
Ortszeit Relative Feuchte Sichtweite
Sa, 25.05. 17:00 67% >70 km
Sa, 25.05. 16:50 67% -
Sa, 25.05. 16:40 65% -
Sa, 25.05. 16:30 57% 35 km
Sa, 25.05. 16:20 57% -
Sa, 25.05. 16:10 59% -
Sa, 25.05. 16:00 59% 65 km
Sa, 25.05. 15:30 60% 1.5 km
Sa, 25.05. 15:00 54% 60 km
Sa, 25.05. 14:30 56% >70 km
Sa, 25.05. 14:00 60% 65 km
Ortszeit Niederschlagsmenge Niederschlagsart
Sa, 25.05. 14:00 0.0 l/m2 in 6 Std. -
Sa, 25.05. 8:00 2 l/m2 in 12 Std. -
Sa, 25.05. 2:00 2 l/m2 in 6 Std. Regen
Fr, 24.05. 20:00 4 l/m2 in 12 Std. Regen
Fr, 24.05. 14:00 0.0 l/m2 in 6 Std. -
Fr, 24.05. 8:00 0.0 l/m2 in 12 Std. -
Fr, 24.05. 2:00 0.0 l/m2 in 6 Std. -
Do, 23.05. 20:00 0.0 l/m2 in 12 Std. -
Ortszeit Niederschlagsmenge Niederschlagsart
Sa, 25.05. 17:00 0.0 l/m2 in 1 Std. -
Sa, 25.05. 16:50 keine Meldung -
Sa, 25.05. 16:40 keine Meldung -
Sa, 25.05. 16:30 0.0 l/m2 in 30 Min -
Sa, 25.05. 16:20 keine Meldung -
Sa, 25.05. 16:10 keine Meldung -
Sa, 25.05. 16:00 0.0 l/m2 in 1 Std. -
Sa, 25.05. 15:30 0.0 l/m2 in 30 Min -
Sa, 25.05. 15:00 0.0 l/m2 in 1 Std. -
Sa, 25.05. 14:30 0.0 l/m2 in 30 Min -
Sa, 25.05. 14:00 0.0 l/m2 in 1 Std. -
Ortszeit Stärke Spitze Richtung
km/h Bft. km/h Grad Sektor
Sa, 25.05. 14:00 7 2 22 230° SW
Sa, 25.05. 8:00 0 0 11 - -
Sa, 25.05. 2:00 4 1 11 30° NO
Fr, 24.05. 20:00 4 1 29 340° N
Fr, 24.05. 14:00 7 2 20 30° NO
Fr, 24.05. 8:00 0 0 11 - -
Fr, 24.05. 2:00 4 1 11 330° NW
Do, 23.05. 20:00 2 1 30 300° NW
Ortszeit Stärke Spitze Richtung
km/h Bft. km/h Grad Sektor
Sa, 25.05. 17:00 7 2 22 230° SW
Sa, 25.05. 16:50 7 2 - 230° SW
Sa, 25.05. 16:40 6 1 - 260° W
Sa, 25.05. 16:30 7 2 18 190° S
Sa, 25.05. 16:20 7 2 - 190° S
Sa, 25.05. 16:10 7 2 - 170° S
Sa, 25.05. 16:00 7 2 18 200° S
Sa, 25.05. 15:30 7 2 18 170° S
Sa, 25.05. 15:00 11 2 25 220° SW
Sa, 25.05. 14:30 11 2 22 240° SW
Sa, 25.05. 14:00 7 2 14 230° SW
Ortszeit Untergrenze Bedeckung Gattung
total tief tief mittel hoch
Sa, 25.05. 14:00 1080 m 7/8 7/8 - - -
Sa, 25.05. 8:00 120 m 4/8 1/8 - - -
Sa, 25.05. 2:00 180 m 8/8 8/8 - - -
Fr, 24.05. 20:00 1500 m 8/8 8/8 - - -
Fr, 24.05. 14:00 1110 m 8/8 5/8 - - -
Fr, 24.05. 8:00 3000 m 5/8 4/8 - - -
Fr, 24.05. 2:00 - 0/8 0/8 - - -
Do, 23.05. 20:00 7200 m 2/8 0/8 - - -
Ortszeit Bedeckungsgrad in Achtel und Wolkenuntergrenze
Sa, 25.05. 17:00 6(1080m) 7(1500m) 7(1800m)
Sa, 25.05. 16:50 6(1080m) 7(1500m) 7(1800m)
Sa, 25.05. 16:40 7
Sa, 25.05. 16:30 2(1260m) 5(1800m) 7(2400m)
Sa, 25.05. 16:20 2(1260m) 5(1800m) 7(2400m)
Sa, 25.05. 16:10 7
Sa, 25.05. 16:00 2(1320m) 5(1800m) 7(2400m)
Sa, 25.05. 15:30 1(1470m) 4(1500m) 7(2100m)
Sa, 25.05. 15:00 2(1290m) 4(1500m)
Sa, 25.05. 14:30 2(1170m)
Sa, 25.05. 14:00 5(1080m) 6(1500m) 7(2400m)
Ortszeit Luftdruck NN (hPa) Tendenz (hPa in 3 Std.)
Sa, 25.05. 14:00 1016 - 0,2
Sa, 25.05. 8:00 1016 0,0
Sa, 25.05. 2:00 1017 - 0,5
Fr, 24.05. 20:00 1018 - 0,8
Fr, 24.05. 14:00 1017 - 0,9
Fr, 24.05. 8:00 1019 + 0,5
Fr, 24.05. 2:00 1018 + 0,5
Do, 23.05. 20:00 1016 + 0,4
Ortszeit Luftdruck NN (hPa) Tendenz (hPa in 3 Std.)
Sa, 25.05. 17:00 1016 0,0
Sa, 25.05. 16:50 1016 keine Meldung
Sa, 25.05. 16:40 1016 keine Meldung
Sa, 25.05. 16:30 1016 - 0,4
Sa, 25.05. 16:20 1016 keine Meldung
Sa, 25.05. 16:10 1016 keine Meldung
Sa, 25.05. 16:00 1016 - 0,5
Sa, 25.05. 15:30 1016 - 0,4
Sa, 25.05. 15:00 1016 - 0,4
Sa, 25.05. 14:30 1016 - 0,2
Sa, 25.05. 14:00 1016 - 0,2
Ortszeit Schneehöhe (cm)
Sa, 25.05. 14:00 0
Sa, 25.05. 8:00 -
Sa, 25.05. 2:00 -
Fr, 24.05. 20:00 -
Fr, 24.05. 14:00 -
Fr, 24.05. 8:00 -
Fr, 24.05. 2:00 -
Do, 23.05. 20:00 -
Ortszeit Schneehöhe (cm)
Sa, 25.05. 17:00 -
Sa, 25.05. 16:50 -
Sa, 25.05. 16:40 -
Sa, 25.05. 16:30 -
Sa, 25.05. 16:20 -
Sa, 25.05. 16:10 -
Sa, 25.05. 16:00 -
Sa, 25.05. 15:30 -
Sa, 25.05. 15:00 0
Sa, 25.05. 14:30 0
Sa, 25.05. 14:00 0
Link zu dieser Seite / Seite empfehlen

Das Wetter in ...